Tropical Cyclones
[Index]
Main Index Home Page Stock Weather Photos Extreme Storms Discussion Storm News and Storm Chasing Reports Tropical Cyclones / Hurricanes / Typhoons Weather Data and Links Wild Fires / Bushfires Weather Observation Techniques Weather Picture Catalogue Tornado Pictures and Reports Stock Video Footage and DVDs for sale
Season 1982-1983 Tropical Cyclone MARK Track Map
Season 1982-1983 Summaries: [BoM-AU] [JTWC-AU] [JTWC-SIO] [JTWC-SPAC] [JTWC-SH]
<<- Previous TC | JTWC 1982-1983 Season | Next TC ->>

click for intensity scale information  Lat/long Grid: Show Hide

 Date Labels: Show Hide

Joint Typhoon Warning Centre Cyclone Data

Name: MARK

18 Jan 1983 12:00 UTC to 30 Jan 1983 12:00 UTC

    date/time    lat    long     hPa   cat  kts
1983-01-18 12   14.2   176.4                  20          
1983-01-18 18   14.5   176.2                  20          
1983-01-19 00   14.7   175.8                  20          
1983-01-19 06   14.8   175.3                  20          
1983-01-19 12   14.9   174.8                  20          
1983-01-19 18   14.9   174.1                  20          
1983-01-20 00   14.8   173.5                  20          
1983-01-20 06   14.9   173.2                  20          
1983-01-20 12   14.9   172.9                  25          
1983-01-20 18   14.7   172.7                  25          
1983-01-21 00   14.5   172.5                  30          
1983-01-21 06   14.4   172.0                  30          
1983-01-21 12   14.2   171.4                  35          
1983-01-21 18   13.9   171.2                  35          
1983-01-22 00   13.6   171.4                  35          
1983-01-22 06   13.2   172.0                  30          
1983-01-22 12   12.8   172.6                  25          
1983-01-22 18   12.1   173.2                  25          
1983-01-23 00   11.4   173.8                  30          
1983-01-23 06   11.0   174.7                  30          
1983-01-23 12   11.1   175.4                  35          
1983-01-23 18   11.5   175.4            1     40          
1983-01-24 00   12.1   175.1            1     45          
1983-01-24 06   12.9   174.8            1     50          
1983-01-24 12   13.6   174.5            2     55          
1983-01-24 18   13.9   174.2            2     60          
1983-01-25 00   14.2   173.9            2     60          
1983-01-25 06   14.8   173.9            2     70          
1983-01-25 12   15.3   173.9            3     75          
1983-01-25 18   15.7   173.4            3     75          
1983-01-26 00   16.1   172.8            3     75          
1983-01-26 06   16.6   172.6            3     80          
1983-01-26 12   17.2   172.6            3     80          
1983-01-26 18   17.7   172.9            3     75          
1983-01-27 00   18.3   173.2            2     65          
1983-01-27 06   18.8   173.4            2     60          
1983-01-27 12   19.2   173.7            2     55          
1983-01-27 18   19.6   174.1            1     50          
1983-01-28 00   19.8   174.5            1     50          
1983-01-28 06   19.5   174.8            1     45          
1983-01-28 12   19.2   175.0            1     40          
1983-01-28 18   19.0   175.2            1     40          
1983-01-29 00   18.8   175.3            1     40          
1983-01-29 06   18.5   175.5                  35          
1983-01-29 12   18.2   175.7                  35          
1983-01-29 18   17.8   176.0                  35          
1983-01-30 00   17.3   176.4                  35          
1983-01-30 06   17.0   177.1                  35          
1983-01-30 12   16.7   178.2                  30          
Winds are 1-min average.

Tropical cyclone tracks developed by Michael Bath using data from the Joint Typhoon Warning Centre Best Tracks and Google Maps.


[Australian Severe Weather index] [Copyright Notice] [Email Contacts] [Search This Site] [Privacy Policy]
Document: tropical_cyclone_mark.htm Updated: 18 September 2016